Time;durP1;ratioP1;P1;durP2;ratioP2;P2;SDS_P1;SDS_P2;PMS_P1;PMS_P2;Temp;Humidity;BMP_temperature;BMP_pressure;BME280_temperature;BME280_humidity;BME280_pressure;Samples;Min_cycle;Max_cycle;Signal;HPM_P1;HPM_P2
2023/03/18 00:00:27;;;;;;;13.23;8.57;;;;;;;11.94;86.71;100638.88;4999455;28;20660;-81
2023/03/18 00:02:52;;;;;;;15.57;8.67;;;;;;;11.92;86.90;100634.69;5017282;28;20025;-81
2023/03/18 00:05:18;;;;;;;16.70;9.27;;;;;;;11.90;87.11;100625.94;5016337;28;20025;-80
2023/03/18 00:07:46;;;;;;;13.33;8.33;;;;;;;11.80;88.34;100621.88;5015523;28;20116;-80
2023/03/18 00:10:12;;;;;;;15.17;8.47;;;;;;;11.81;88.12;100618.09;5016242;28;20057;-80
2023/03/18 00:12:39;;;;;;;15.23;8.87;;;;;;;11.80;87.97;100615.59;5014296;28;20504;-80
2023/03/18 00:15:07;;;;;;;13.63;8.60;;;;;;;11.78;88.09;100609.59;5016362;28;20026;-80
2023/03/18 00:17:32;;;;;;;16.13;8.87;;;;;;;11.76;88.20;100615.25;5014255;28;20038;-79
2023/03/18 00:20:04;;;;;;;15.90;8.93;;;;;;;11.77;88.28;100616.06;5016008;28;20033;-80
2023/03/18 00:22:32;;;;;;;14.53;8.63;;;;;;;11.73;88.77;100625.72;5015637;28;20124;-80
2023/03/18 00:24:57;;;;;;;14.67;8.77;;;;;;;11.71;89.05;100619.66;5006679;28;20045;-79
2023/03/18 00:27:23;;;;;;;21.67;12.33;;;;;;;11.71;89.47;100623.22;5007349;28;20052;-80
2023/03/18 00:29:50;;;;;;;20.93;11.30;;;;;;;11.74;89.32;100627.38;5016260;28;20053;-80
2023/03/18 00:32:16;;;;;;;20.87;11.40;;;;;;;11.71;89.70;100622.38;5015556;28;20037;-80
2023/03/18 00:34:41;;;;;;;19.33;11.10;;;;;;;11.71;89.95;100627.81;5014240;28;20033;-80
2023/03/18 00:37:07;;;;;;;18.77;10.93;;;;;;;11.63;91.25;100626.25;5015635;28;20140;-80
2023/03/18 00:39:32;;;;;;;18.93;10.20;;;;;;;11.66;90.55;100631.22;5015537;28;20049;-80
2023/03/18 00:42:06;;;;;;;17.60;10.10;;;;;;;11.64;90.57;100638.72;5014796;28;21702;-81
2023/03/18 00:44:32;;;;;;;16.50;10.35;;;;;;;11.67;90.87;100641.03;5016277;28;20021;-81
2023/03/18 00:46:57;;;;;;;18.87;11.67;;;;;;;11.71;90.45;100646.81;5015173;28;20039;-81
2023/03/18 00:49:22;;;;;;;21.10;12.17;;;;;;;11.70;90.55;100650.59;5015813;28;20068;-81
2023/03/18 00:51:48;;;;;;;19.37;11.27;;;;;;;11.72;90.38;100645.75;5006973;28;20658;-81
2023/03/18 00:54:16;;;;;;;19.37;11.27;;;;;;;11.70;90.53;100639.75;5015936;28;20116;-81
2023/03/18 00:56:42;;;;;;;21.07;11.27;;;;;;;11.67;90.91;100646.44;5016640;28;20079;-81
2023/03/18 00:59:08;;;;;;;21.03;12.30;;;;;;;11.65;91.12;100646.69;5016159;28;20033;-82
2023/03/18 01:01:34;;;;;;;20.37;12.10;;;;;;;11.66;91.30;100645.59;5016231;28;20029;-82
2023/03/18 01:04:00;;;;;;;21.30;12.27;;;;;;;11.66;91.60;100656.44;5015558;28;20037;-81
2023/03/18 01:06:28;;;;;;;18.60;10.70;;;;;;;11.65;91.19;100646.69;5016189;28;20046;-81
2023/03/18 01:08:55;;;;;;;16.97;8.97;;;;;;;11.71;91.07;100649.53;5015718;28;20034;-81
2023/03/18 01:11:21;;;;;;;15.77;9.00;;;;;;;11.68;91.53;100655.41;5016892;28;20557;-81
2023/03/18 01:13:48;;;;;;;20.17;10.10;;;;;;;11.71;91.06;100649.53;5018636;28;20425;-82
2023/03/18 01:16:14;;;;;;;16.37;9.27;;;;;;;11.69;91.58;100651.66;5020169;28;20796;-81
2023/03/18 01:18:40;;;;;;;15.17;9.00;;;;;;;11.76;91.99;100652.41;5018184;28;20021;-81
2023/03/18 01:21:07;;;;;;;17.37;9.17;;;;;;;11.80;92.32;100642.75;5020224;28;20528;-82
2023/03/18 01:23:34;;;;;;;17.47;9.10;;;;;;;11.77;93.26;100651.34;5019638;28;20493;-81
2023/03/18 01:26:00;;;;;;;18.87;9.80;;;;;;;11.75;93.56;100645.31;5020718;28;20079;-81
2023/03/18 01:28:26;;;;;;;18.80;9.30;;;;;;;11.71;93.81;100642.22;5019024;28;20058;-81
2023/03/18 01:30:52;;;;;;;17.53;9.43;;;;;;;11.68;93.90;100647.25;5020242;28;20041;-81
2023/03/18 01:33:18;;;;;;;18.43;9.90;;;;;;;11.65;94.25;100638.53;5018245;28;20041;-81
2023/03/18 01:35:46;;;;;;;17.07;9.37;;;;;;;11.68;95.27;100645.38;5020039;28;20428;-80
2023/03/18 01:38:12;;;;;;;18.10;9.67;;;;;;;11.70;95.73;100642.47;5018960;28;20021;-80
2023/03/18 01:40:41;;;;;;;16.17;9.90;;;;;;;11.66;96.06;100637.44;5018877;28;20029;-80
2023/03/18 01:43:11;;;;;;;17.23;9.83;;;;;;;11.65;96.70;100646.69;5017625;28;20435;-80
2023/03/18 01:45:37;;;;;;;16.53;10.57;;;;;;;11.60;96.85;100651.09;5017266;28;20033;-80
2023/03/18 01:48:03;;;;;;;18.07;10.10;;;;;;;11.56;98.48;100645.28;5018494;28;20029;-79
2023/03/18 01:50:34;;;;;;;19.40;10.47;;;;;;;11.54;100.00;100647.38;5018794;28;20033;-79
2023/03/18 01:53:14;;;;;;;19.07;10.90;;;;;;;11.48;100.00;100648.28;5018758;28;20534;-81
2023/03/18 01:55:42;;;;;;;19.83;11.57;;;;;;;11.36;100.00;100636.50;5018747;28;21295;-81
2023/03/18 01:58:23;;;;;;;19.50;11.37;;;;;;;11.30;100.00;100644.47;5019099;28;20060;-81
2023/03/18 02:01:11;;;;;;;18.27;11.10;;;;;;;11.18;100.00;100639.97;5019433;28;20816;-81
2023/03/18 02:03:40;;;;;;;20.83;12.43;;;;;;;11.02;100.00;100635.94;5018587;28;20034;-81
2023/03/18 02:06:05;;;;;;;21.80;12.63;;;;;;;10.96;100.00;100646.63;5018907;28;20053;-81
2023/03/18 02:08:31;;;;;;;23.30;13.33;;;;;;;11.03;100.00;100640.31;4991974;28;20673;-81
2023/03/18 02:10:56;;;;;;;19.57;12.80;;;;;;;10.97;100.00;100639.31;5018816;28;20029;-81
2023/03/18 02:13:22;;;;;;;21.07;13.77;;;;;;;10.81;100.00;100641.50;5018338;28;20021;-81
2023/03/18 02:16:00;;;;;;;20.93;12.73;;;;;;;10.87;100.00;100645.22;5010136;28;20037;-81
2023/03/18 02:18:34;;;;;;;21.53;13.63;;;;;;;10.82;100.00;100647.75;5015608;28;20021;-81
2023/03/18 02:21:15;;;;;;;22.90;14.73;;;;;;;10.70;100.00;100639.47;5019074;28;20124;-81
2023/03/18 02:23:53;;;;;;;23.57;14.23;;;;;;;10.74;100.00;100638.00;5015854;28;20041;-81
2023/03/18 02:26:31;;;;;;;22.07;14.63;;;;;;;10.73;100.00;100646.34;5018715;28;21702;-81
2023/03/18 02:29:03;;;;;;;24.10;15.23;;;;;;;10.71;100.00;100640.31;5017984;28;20052;-81
2023/03/18 02:31:30;;;;;;;23.13;15.80;;;;;;;10.63;100.00;100650.38;5018355;28;20034;-79
2023/03/18 02:33:57;;;;;;;24.97;16.17;;;;;;;10.68;100.00;100648.88;5017571;28;20136;-79
2023/03/18 02:36:29;;;;;;;24.57;16.23;;;;;;;10.54;100.00;100658.94;5017937;28;20116;-79
2023/03/18 02:38:59;;;;;;;22.90;16.27;;;;;;;10.55;100.00;100658.75;5017671;28;20124;-79
2023/03/18 02:41:30;;;;;;;27.37;16.60;;;;;;;10.53;100.00;100668.16;5017867;28;20021;-79
2023/03/18 02:43:56;;;;;;;26.63;17.53;;;;;;;10.54;100.00;100664.38;5016799;28;20029;-79
2023/03/18 02:46:40;;;;;;;24.83;17.37;;;;;;;10.51;100.00;100662.09;5016091;28;20083;-79
2023/03/18 02:49:07;;;;;;;24.23;17.33;;;;;;;10.48;100.00;100674.19;5017337;28;20398;-79
2023/03/18 02:51:34;;;;;;;26.37;18.13;;;;;;;10.44;100.00;100678.38;5017730;28;20038;-79
2023/03/18 02:54:12;;;;;;;25.10;17.57;;;;;;;10.45;100.00;100677.34;5017437;28;20033;-79
2023/03/18 02:56:39;;;;;;;24.10;18.33;;;;;;;10.39;100.00;100680.88;5017488;28;20048;-79
2023/03/18 02:59:04;;;;;;;28.17;19.07;;;;;;;10.34;100.00;100680.69;5016257;28;20037;-81
2023/03/18 03:01:32;;;;;;;24.63;19.03;;;;;;;10.33;100.00;100687.97;5017640;28;20095;-81
2023/03/18 03:03:58;;;;;;;24.60;18.47;;;;;;;10.31;100.00;100680.06;5017794;28;20396;-81
2023/03/18 03:06:24;;;;;;;28.67;19.60;;;;;;;10.29;100.00;100682.16;5018139;28;20037;-81
2023/03/18 03:08:50;;;;;;;28.27;19.73;;;;;;;10.26;100.00;100693.41;5017293;28;20086;-81
2023/03/18 03:11:16;;;;;;;27.60;20.17;;;;;;;10.24;100.00;100695.50;4991892;28;20838;-81
2023/03/18 03:13:44;;;;;;;27.17;20.47;;;;;;;10.25;100.00;100696.34;5017814;28;20095;-81
2023/03/18 03:16:11;;;;;;;28.00;20.33;;;;;;;10.22;100.00;100702.19;5016284;28;21692;-81
2023/03/18 03:18:37;;;;;;;28.23;20.90;;;;;;;10.21;100.00;100701.34;5015946;28;20086;-81
2023/03/18 03:21:04;;;;;;;29.33;21.50;;;;;;;10.20;100.00;100710.53;5017724;28;20485;-81
2023/03/18 03:23:29;;;;;;;27.67;20.93;;;;;;;10.22;100.00;100708.41;5015549;28;20048;-81
2023/03/18 03:25:56;;;;;;;27.37;21.10;;;;;;;10.22;100.00;100719.25;5018269;28;20480;-81
2023/03/18 03:28:21;;;;;;;30.77;22.40;;;;;;;10.22;100.00;100708.41;5016541;28;20033;-81
2023/03/18 03:30:48;;;;;;;29.23;21.83;;;;;;;10.25;100.00;100707.16;5016988;28;20048;-81
2023/03/18 03:33:14;;;;;;;28.80;21.10;;;;;;;10.26;100.00;100712.34;5017205;28;20077;-81
2023/03/18 03:35:40;;;;;;;28.47;21.80;;;;;;;10.28;100.00;100710.28;5016859;28;20497;-81
2023/03/18 03:38:07;;;;;;;28.97;21.53;;;;;;;10.22;100.00;100713.84;5015816;28;20395;-81
2023/03/18 03:40:32;;;;;;;28.73;21.37;;;;;;;10.25;100.00;100718.00;5016916;28;20115;-81
2023/03/18 03:42:58;;;;;;;28.80;21.83;;;;;;;10.21;100.00;100717.56;5016862;28;20043;-81
2023/03/18 03:45:23;;;;;;;28.67;22.30;;;;;;;10.19;100.00;100719.69;5008702;28;20042;-81
2023/03/18 03:47:50;;;;;;;29.77;23.20;;;;;;;10.21;100.00;100711.34;5016487;28;20115;-81
2023/03/18 03:50:16;;;;;;;32.37;23.90;;;;;;;10.16;100.00;100720.13;5015242;28;20041;-80
2023/03/18 03:52:42;;;;;;;33.73;23.97;;;;;;;10.21;100.00;100724.88;5016577;28;20029;-80
2023/03/18 03:55:11;;;;;;;32.43;24.70;;;;;;;10.16;100.00;100724.69;5016027;28;20064;-79
2023/03/18 03:57:37;;;;;;;30.73;23.80;;;;;;;10.17;100.00;100716.34;5015825;28;20088;-79
2023/03/18 04:00:06;;;;;;;31.07;24.53;;;;;;;10.18;100.00;100718.00;5015988;28;20168;-79
2023/03/18 04:02:31;;;;;;;28.67;23.83;;;;;;;10.15;100.00;100715.72;5006390;28;20037;-79
2023/03/18 04:04:56;;;;;;;34.83;25.57;;;;;;;10.13;100.00;100715.09;5015985;28;20079;-79
2023/03/18 04:07:22;;;;;;;36.30;26.07;;;;;;;10.14;100.00;100722.19;5016374;28;20425;-79
2023/03/18 04:09:48;;;;;;;31.90;25.30;;;;;;;10.11;100.00;100730.75;5016046;28;20041;-79
2023/03/18 04:12:13;;;;;;;28.57;23.70;;;;;;;10.11;100.00;100720.72;4991874;28;20057;-79
2023/03/18 04:14:39;;;;;;;30.20;23.40;;;;;;;10.11;100.00;100719.91;5016268;28;20057;-81
2023/03/18 04:17:04;;;;;;;30.90;22.70;;;;;;;10.12;100.00;100722.41;5011679;28;20088;-81
2023/03/18 04:19:30;;;;;;;28.83;22.97;;;;;;;10.19;100.00;100725.09;5016265;28;20040;-81
2023/03/18 04:21:55;;;;;;;29.47;23.63;;;;;;;10.17;100.00;100721.75;5016865;28;20124;-81
2023/03/18 04:24:21;;;;;;;30.27;23.50;;;;;;;10.15;100.00;100729.28;5015986;28;20040;-81
2023/03/18 04:26:47;;;;;;;28.37;23.37;;;;;;;10.20;100.00;100726.78;5016242;28;20393;-81
2023/03/18 04:29:12;;;;;;;34.60;24.47;;;;;;;10.22;100.00;100731.97;5015848;28;20058;-81
2023/03/18 04:31:37;;;;;;;30.97;25.40;;;;;;;10.21;100.00;100735.72;5014653;28;20037;-81
2023/03/18 04:34:03;;;;;;;32.77;25.80;;;;;;;10.20;100.00;100726.78;5014886;28;20042;-81
2023/03/18 04:36:29;;;;;;;28.23;24.17;;;;;;;10.21;100.00;100728.41;5016356;28;20040;-81
2023/03/18 04:38:55;;;;;;;29.57;24.47;;;;;;;10.22;100.00;100719.25;5014733;28;20084;-81
2023/03/18 04:41:21;;;;;;;30.53;24.53;;;;;;;10.26;100.00;100736.72;5016298;28;20037;-81
2023/03/18 04:43:47;;;;;;;30.30;24.20;;;;;;;10.22;100.00;100738.19;5015606;28;20551;-79
2023/03/18 04:46:13;;;;;;;29.07;24.10;;;;;;;10.19;100.00;100730.50;5014809;28;20037;-79
2023/03/18 04:48:39;;;;;;;28.83;23.80;;;;;;;10.17;100.00;100740.72;5015254;28;20033;-79
2023/03/18 04:51:07;;;;;;;30.73;24.57;;;;;;;10.14;100.00;100728.44;5015642;28;20040;-79
2023/03/18 04:53:33;;;;;;;28.97;24.53;;;;;;;10.14;100.00;100735.72;5015356;28;20037;-79
2023/03/18 04:55:59;;;;;;;29.60;24.23;;;;;;;10.17;100.00;100729.88;5015464;28;20909;-79
2023/03/18 04:58:25;;;;;;;31.67;24.70;;;;;;;10.18;100.00;100738.84;5005675;28;20029;-79
2023/03/18 05:00:52;;;;;;;31.67;25.23;;;;;;;10.17;100.00;100748.81;5015257;28;20079;-79
2023/03/18 05:03:17;;;;;;;30.07;24.17;;;;;;;10.17;100.00;100746.13;5015369;28;20520;-79
2023/03/18 05:05:43;;;;;;;29.80;25.07;;;;;;;10.17;100.00;100751.53;5015410;28;20390;-79
2023/03/18 05:08:09;;;;;;;34.67;26.80;;;;;;;10.20;100.00;100747.56;5015794;28;20037;-79
2023/03/18 05:10:34;;;;;;;33.30;27.50;;;;;;;10.16;100.00;100747.19;4990498;28;20042;-80
2023/03/18 05:13:00;;;;;;;34.00;27.23;;;;;;;10.20;100.00;100753.00;5015168;28;20408;-79
2023/03/18 05:15:26;;;;;;;30.80;25.70;;;;;;;10.19;100.00;100760.28;5013616;28;20102;-79
2023/03/18 05:17:51;;;;;;;31.40;25.20;;;;;;;10.19;100.00;100759.47;5015557;28;20446;-79
2023/03/18 05:20:17;;;;;;;33.67;26.40;;;;;;;10.21;100.00;100763.59;5013342;28;20501;-79
2023/03/18 05:22:42;;;;;;;36.40;27.27;;;;;;;10.18;100.00;100761.34;5015354;28;20041;-79
2023/03/18 05:25:10;;;;;;;32.13;26.30;;;;;;;10.17;100.00;100762.38;5013255;28;20230;-80
2023/03/18 05:27:36;;;;;;;35.17;27.03;;;;;;;10.21;100.00;100763.59;5005453;28;20141;-79
2023/03/18 05:30:06;;;;;;;33.57;26.50;;;;;;;10.16;100.00;100768.84;5014693;28;20049;-79
2023/03/18 05:32:31;;;;;;;32.53;25.87;;;;;;;10.17;100.00;100759.66;5013734;28;21335;-79
2023/03/18 05:34:57;;;;;;;32.60;27.10;;;;;;;10.17;100.00;100770.50;5015058;28;20046;-79
2023/03/18 05:37:22;;;;;;;32.87;26.77;;;;;;;10.17;100.00;100764.25;5015342;28;20049;-79
2023/03/18 05:39:48;;;;;;;31.07;24.50;;;;;;;10.16;100.00;100752.59;5014727;28;20033;-79
2023/03/18 05:42:14;;;;;;;28.93;23.03;;;;;;;10.11;100.00;100758.63;5015323;28;20094;-79
2023/03/18 05:44:39;;;;;;;28.93;23.90;;;;;;;10.08;100.00;100756.34;5015218;28;20041;-79
2023/03/18 05:47:05;;;;;;;29.10;22.60;;;;;;;10.08;100.00;100755.53;5015279;28;20033;-80
2023/03/18 05:49:31;;;;;;;29.60;24.03;;;;;;;10.04;100.00;100754.28;5012865;28;20037;-79
2023/03/18 05:51:56;;;;;;;28.33;24.23;;;;;;;10.00;100.00;100762.00;5014768;28;20120;-80
2023/03/18 05:54:22;;;;;;;30.10;24.20;;;;;;;10.00;100.00;100766.59;5012850;28;20122;-79
2023/03/18 05:56:48;;;;;;;32.47;24.77;;;;;;;10.01;100.00;100765.53;5015136;28;20112;-79
2023/03/18 05:59:14;;;;;;;30.17;25.00;;;;;;;9.97;100.00;100781.38;5018214;28;20029;-79
2023/03/18 06:01:41;;;;;;;28.60;24.00;;;;;;;9.99;100.00;100779.28;5018261;28;20045;-79
2023/03/18 06:04:07;;;;;;;29.67;22.90;;;;;;;10.04;100.00;100803.84;5018344;28;20571;-79
2023/03/18 06:06:36;;;;;;;28.93;23.40;;;;;;;10.03;100.00;100795.94;5018255;28;20129;-79
2023/03/18 06:09:02;;;;;;;32.57;25.97;;;;;;;10.02;100.00;100796.97;5017873;28;20029;-79
2023/03/18 06:11:28;;;;;;;31.00;24.87;;;;;;;10.02;100.00;100794.25;5017777;28;20132;-79
2023/03/18 06:13:54;;;;;;;34.00;27.13;;;;;;;10.01;100.00;100804.25;5018150;28;20120;-79
2023/03/18 06:16:19;;;;;;;34.43;26.97;;;;;;;10.00;100.00;100809.91;5016775;28;20037;-79
2023/03/18 06:18:44;;;;;;;34.30;26.57;;;;;;;10.02;100.00;100805.09;5017004;28;20037;-79
2023/03/18 06:21:10;;;;;;;31.40;24.40;;;;;;;9.99;100.00;100800.09;5018203;28;20112;-79
2023/03/18 06:23:36;;;;;;;31.83;24.77;;;;;;;10.00;100.00;100810.72;5018481;28;20175;-79
2023/03/18 06:26:02;;;;;;;30.90;24.50;;;;;;;9.96;100.00;100807.59;5017851;28;20116;-79
2023/03/18 06:28:28;;;;;;;28.43;22.70;;;;;;;9.99;100.00;100800.91;5016508;28;20033;-79
2023/03/18 06:30:56;;;;;;;26.73;22.00;;;;;;;9.98;100.00;100810.06;5016683;28;21932;-79
2023/03/18 06:33:24;;;;;;;28.77;22.50;;;;;;;9.98;100.00;100804.66;5017672;28;20060;-79
2023/03/18 06:35:51;;;;;;;26.43;21.43;;;;;;;10.00;100.00;100802.59;5017661;28;20041;-79
2023/03/18 06:38:16;;;;;;;28.20;21.50;;;;;;;9.97;100.00;100801.13;5018057;28;20955;-79
2023/03/18 06:40:43;;;;;;;26.43;21.33;;;;;;;9.99;100.00;100800.09;5017590;28;20034;-79
2023/03/18 06:43:09;;;;;;;27.53;21.00;;;;;;;10.00;100.00;100801.78;5016387;28;20067;-79
2023/03/18 06:45:35;;;;;;;27.47;21.57;;;;;;;10.03;100.00;100802.16;5017160;28;20034;-80
2023/03/18 06:48:01;;;;;;;25.83;21.40;;;;;;;10.09;100.00;100811.31;5008665;28;21809;-79
2023/03/18 06:50:26;;;;;;;26.67;20.87;;;;;;;10.10;100.00;100807.56;5017135;28;20132;-79
2023/03/18 06:52:52;;;;;;;25.80;20.33;;;;;;;10.13;100.00;100813.41;5017969;28;20494;-80
2023/03/18 06:55:18;;;;;;;27.57;21.20;;;;;;;10.13;100.00;100812.56;5017517;28;20038;-79
2023/03/18 06:57:44;;;;;;;29.07;21.93;;;;;;;10.17;100.00;100808.41;5017689;28;20052;-79
2023/03/18 07:00:10;;;;;;;25.17;22.17;;;;;;;10.20;100.00;100818.81;5017884;28;20036;-81
2023/03/18 07:02:36;;;;;;;27.60;22.00;;;;;;;10.27;100.00;100818.81;5016427;28;20033;-81
2023/03/18 07:05:03;;;;;;;28.93;21.87;;;;;;;10.33;100.00;100827.97;5017673;28;20048;-81
2023/03/18 07:07:29;;;;;;;26.27;20.27;;;;;;;10.39;100.00;100832.56;5018335;28;20033;-81
2023/03/18 07:09:54;;;;;;;26.77;20.63;;;;;;;10.41;100.00;100831.31;4999004;28;20128;-81
2023/03/18 07:12:19;;;;;;;22.73;18.77;;;;;;;10.49;100.00;100837.56;5017209;28;20037;-81
2023/03/18 07:14:45;;;;;;;22.33;18.50;;;;;;;10.53;100.00;100836.09;5009581;28;20029;-82
2023/03/18 07:17:13;;;;;;;24.00;18.50;;;;;;;10.57;100.00;100837.34;5016415;28;20064;-81
2023/03/18 07:19:38;;;;;;;22.13;18.60;;;;;;;10.60;100.00;100843.16;5017780;28;20039;-82
2023/03/18 07:22:04;;;;;;;23.33;18.63;;;;;;;10.67;100.00;100850.44;5018621;28;20037;-81
2023/03/18 07:24:29;;;;;;;24.53;19.23;;;;;;;10.71;100.00;100857.09;5017799;28;20036;-81
2023/03/18 07:26:55;;;;;;;25.67;18.77;;;;;;;10.77;100.00;100853.53;5018816;28;20444;-83
2023/03/18 07:29:20;;;;;;;20.53;17.13;;;;;;;10.80;100.00;100850.41;5016950;28;20044;-81
2023/03/18 07:31:46;;;;;;;22.80;19.23;;;;;;;10.82;100.00;100851.00;5016987;28;20048;-82
2023/03/18 07:34:13;;;;;;;25.67;19.10;;;;;;;10.81;100.00;100858.31;5015868;28;20026;-82
2023/03/18 07:36:40;;;;;;;22.00;18.17;;;;;;;10.93;100.00;100849.53;5016396;28;21822;-82
2023/03/18 07:39:07;;;;;;;20.67;18.07;;;;;;;10.88;100.00;100852.88;5017781;28;20082;-81
2023/03/18 07:41:32;;;;;;;24.03;19.20;;;;;;;10.84;100.00;100854.34;5017926;28;20029;-81
2023/03/18 07:43:58;;;;;;;24.00;19.13;;;;;;;10.95;100.00;100867.25;5018094;28;20501;-82
2023/03/18 07:46:24;;;;;;;22.77;18.63;;;;;;;11.01;100.00;100862.00;5017475;28;20039;-82
2023/03/18 07:48:50;;;;;;;21.50;18.10;;;;;;;11.05;100.00;100872.22;5017630;28;20029;-81
2023/03/18 07:51:16;;;;;;;21.33;17.33;;;;;;;11.12;100.00;100869.47;5017444;28;20048;-81
2023/03/18 07:53:42;;;;;;;20.57;17.23;;;;;;;11.20;100.00;100881.97;5018329;28;20156;-82
2023/03/18 07:56:08;;;;;;;20.93;16.57;;;;;;;11.30;100.00;100879.59;5017329;28;20036;-80
2023/03/18 07:58:35;;;;;;;20.93;16.03;;;;;;;11.38;100.00;100892.94;5014438;28;20044;-80
2023/03/18 08:01:00;;;;;;;19.20;15.93;;;;;;;11.38;100.00;100892.94;5010180;28;20029;-79
2023/03/18 08:03:26;;;;;;;19.43;15.60;;;;;;;11.44;100.00;100883.94;5016366;28;20074;-80
2023/03/18 08:05:52;;;;;;;20.33;15.37;;;;;;;11.47;100.00;100894.34;5015002;28;20381;-80
2023/03/18 08:08:17;;;;;;;17.33;14.37;;;;;;;11.52;100.00;100895.56;5009527;28;20037;-82
2023/03/18 08:10:43;;;;;;;19.60;14.07;;;;;;;11.59;100.00;100899.91;5017667;28;20485;-82
2023/03/18 08:13:08;;;;;;;18.50;14.63;;;;;;;11.71;100.00;100888.38;5019091;28;20075;-82
2023/03/18 08:15:34;;;;;;;16.90;13.57;;;;;;;11.78;100.00;100884.56;5010321;28;20033;-82
2023/03/18 08:17:59;;;;;;;16.00;13.20;;;;;;;11.75;100.00;100867.88;5017874;28;20568;-82
2023/03/18 08:20:26;;;;;;;17.20;13.00;;;;;;;11.89;100.00;100863.22;5008625;28;20404;-82
2023/03/18 08:22:52;;;;;;;17.23;13.13;;;;;;;12.08;100.00;100875.00;5011332;28;20032;-82
2023/03/18 08:25:18;;;;;;;16.83;12.43;;;;;;;12.03;100.00;100881.09;5017033;28;20108;-82
2023/03/18 08:27:44;;;;;;;15.47;12.40;;;;;;;12.35;100.00;100885.63;5016869;28;20067;-82
2023/03/18 08:30:10;;;;;;;15.77;12.00;;;;;;;12.47;100.00;100883.84;5016531;28;20063;-82
2023/03/18 08:32:36;;;;;;;14.20;11.27;;;;;;;12.69;100.00;100878.84;5016862;28;20029;-82
2023/03/18 08:35:01;;;;;;;14.20;10.97;;;;;;;12.90;100.00;100879.44;5016630;28;20107;-82
2023/03/18 08:37:27;;;;;;;14.23;10.93;;;;;;;13.07;100.00;100880.50;5016627;28;20103;-82
2023/03/18 08:39:53;;;;;;;12.33;9.70;;;;;;;13.31;100.00;100878.75;5017390;28;20029;-83
2023/03/18 08:42:19;;;;;;;12.67;9.70;;;;;;;13.54;100.00;100879.91;5016370;28;20397;-83
2023/03/18 08:44:44;;;;;;;12.83;9.80;;;;;;;13.66;100.00;100886.22;5016133;28;20033;-83
2023/03/18 08:47:09;;;;;;;11.90;8.97;;;;;;;13.77;100.00;100889.25;5016509;28;20033;-82
2023/03/18 08:49:35;;;;;;;12.70;9.60;;;;;;;13.89;100.00;100892.81;5015774;28;20214;-83
2023/03/18 08:52:01;;;;;;;11.50;8.87;;;;;;;14.02;100.00;100883.63;5016206;28;20564;-83
2023/03/18 08:54:27;;;;;;;10.57;8.43;;;;;;;14.01;97.41;100896.41;5016582;28;20159;-82
2023/03/18 08:56:54;;;;;;;11.00;8.27;;;;;;;14.11;97.75;100884.09;5015568;28;20485;-82
2023/03/18 08:59:20;;;;;;;11.37;8.60;;;;;;;14.18;98.22;100891.13;5014382;28;20111;-81
2023/03/18 09:01:46;;;;;;;12.00;8.47;;;;;;;14.09;96.49;100902.56;5015077;28;20040;-81
2023/03/18 09:04:13;;;;;;;13.50;8.50;;;;;;;14.32;95.90;100891.72;5015546;28;20036;-80
2023/03/18 09:06:39;;;;;;;11.30;8.60;;;;;;;14.18;96.62;100898.44;5015092;28;20064;-81
2023/03/18 09:09:04;;;;;;;12.77;9.00;;;;;;;14.13;95.56;100898.31;5014028;28;20466;-81
2023/03/18 09:11:30;;;;;;;12.63;8.40;;;;;;;14.05;95.85;100895.94;5013776;28;20037;-81
2023/03/18 09:13:55;;;;;;;12.00;8.53;;;;;;;14.15;97.18;100898.91;5015704;28;20041;-81
2023/03/18 09:16:20;;;;;;;10.90;8.20;;;;;;;13.86;96.17;100898.75;5013660;28;20033;-81
2023/03/18 09:18:46;;;;;;;12.13;8.30;;;;;;;13.80;97.57;100894.22;5014409;28;20160;-80
2023/03/18 09:21:11;;;;;;;11.07;7.57;;;;;;;13.96;95.82;100892.72;5013683;28;20573;-80
2023/03/18 09:23:36;;;;;;;9.60;7.67;;;;;;;14.10;96.83;100888.75;5014534;28;20041;-80
2023/03/18 09:26:02;;;;;;;10.80;7.83;;;;;;;14.38;97.55;100895.41;5013625;28;20033;-81
2023/03/18 09:28:28;;;;;;;11.03;8.00;;;;;;;14.44;95.72;100899.06;5013943;28;20049;-80
2023/03/18 09:30:54;;;;;;;11.03;7.10;;;;;;;14.47;95.16;100902.16;5014163;28;20045;-80
2023/03/18 09:33:21;;;;;;;9.33;7.20;;;;;;;14.33;92.97;100893.38;5017320;28;20111;-80
2023/03/18 09:35:47;;;;;;;10.33;7.60;;;;;;;14.44;94.18;100899.91;5018739;28;20136;-80
2023/03/18 09:38:18;;;;;;;9.73;7.27;;;;;;;14.31;94.26;100905.59;5019086;28;21031;-80
2023/03/18 09:41:00;;;;;;;11.83;7.70;;;;;;;14.35;95.13;100915.78;5018713;28;20044;-80
2023/03/18 09:43:53;;;;;;;10.67;7.40;;;;;;;14.31;95.22;100909.13;5019491;28;20033;-81
2023/03/18 09:46:25;;;;;;;10.50;7.43;;;;;;;14.35;94.40;100915.78;5018524;28;20155;-80
2023/03/18 09:49:18;;;;;;;10.57;7.33;;;;;;;14.31;96.16;100911.03;5018596;28;20033;-79
2023/03/18 09:52:12;;;;;;;10.40;7.60;;;;;;;14.77;96.07;100908.56;5024545;28;20095;-87
2023/03/18 09:55:03;;;;;;;9.90;7.27;;;;;;;15.14;92.15;100900.13;5018875;28;20071;-80
2023/03/18 09:57:33;;;;;;;10.47;6.83;;;;;;;15.12;90.11;100908.53;5017595;28;20025;-80
2023/03/18 10:00:27;;;;;;;9.00;6.20;;;;;;;15.52;91.08;100915.88;5018896;28;20167;-80
2023/03/18 10:03:02;;;;;;;10.30;6.80;;;;;;;15.74;89.08;100914.41;5016411;28;20463;-80
2023/03/18 10:05:42;;;;;;;8.37;6.27;;;;;;;16.00;86.15;100927.44;5017271;28;20427;-80
2023/03/18 10:08:36;;;;;;;9.13;6.00;;;;;;;15.99;84.95;100914.88;5018359;28;20025;-80
2023/03/18 10:11:05;;;;;;;;;;;;;;;16.18;82.21;100920.09;5015830;28;21734;-80
2023/03/18 10:13:44;;;;;;;11.30;6.20;;;;;;;16.02;82.36;100914.38;5017420;28;20070;-80
2023/03/18 10:16:20;;;;;;;9.53;6.37;;;;;;;15.97;83.65;100908.81;5017425;28;20112;-80
2023/03/18 10:18:46;;;;;;;9.87;5.80;;;;;;;16.18;81.12;100911.91;5018492;28;20021;-80
2023/03/18 10:21:33;;;;;;;8.97;5.63;;;;;;;16.42;84.49;100915.31;5020611;28;20129;-85
2023/03/18 10:24:22;;;;;;;7.97;4.90;;;;;;;16.32;80.78;100906.94;5019763;28;20075;-83
2023/03/18 10:26:55;;;;;;;6.03;4.53;;;;;;;16.42;77.43;100912.56;5009421;28;20043;-83
2023/03/18 10:29:33;;;;;;;8.30;5.37;;;;;;;16.45;79.03;100911.25;5018718;28;20045;-80
2023/03/18 10:32:31;;;;;;;9.03;5.00;;;;;;;16.71;79.90;100915.19;5017404;28;20650;-80
2023/03/18 10:35:24;;;;;;;6.73;4.07;;;;;;;17.07;80.09;100917.63;5017669;28;20039;-80
2023/03/18 10:38:15;;;;;;;6.63;4.73;;;;;;;17.16;75.62;100919.69;5017495;28;20029;-80
2023/03/18 10:40:41;;;;;;;6.80;4.50;;;;;;;17.06;75.40;100924.19;5017615;28;21840;-80
2023/03/18 10:43:19;;;;;;;4.90;3.03;;;;;;;17.42;74.30;100920.00;5017431;28;20037;-80
2023/03/18 10:45:48;;;;;;;6.63;3.50;;;;;;;17.30;71.64;100914.66;5016634;28;20120;-79
2023/03/18 10:48:26;;;;;;;6.32;3.40;;;;;;;17.03;72.05;100909.94;5017235;28;20120;-79
2023/03/18 10:51:04;;;;;;;5.63;3.23;;;;;;;17.13;72.03;100924.84;5017194;28;20037;-80
2023/03/18 10:53:37;;;;;;;6.17;3.40;;;;;;;17.27;72.89;100915.16;5017107;28;20641;-80
2023/03/18 10:56:09;;;;;;;6.63;3.75;;;;;;;16.85;70.70;100910.22;5016789;28;20033;-80
2023/03/18 10:58:37;;;;;;;6.73;3.10;;;;;;;16.64;69.01;100909.91;5016833;28;20113;-80
2023/03/18 11:01:06;;;;;;;5.60;2.70;;;;;;;16.61;72.11;100904.94;5017366;28;20044;-80
2023/03/18 11:03:35;;;;;;;7.47;3.20;;;;;;;16.58;71.46;100910.91;5016773;28;20029;-80
2023/03/18 11:06:03;;;;;;;5.57;2.60;;;;;;;16.58;70.12;100910.91;5017018;28;21778;-80
2023/03/18 11:08:36;;;;;;;6.60;2.57;;;;;;;16.36;69.97;100908.94;5016663;28;20037;-80
2023/03/18 11:11:25;;;;;;;5.57;2.72;;;;;;;16.51;74.03;100902.06;5017195;28;20037;-80
2023/03/18 11:13:55;;;;;;;6.50;2.40;;;;;;;16.42;71.47;100900.81;5017045;28;20120;-80